createdAt,value
2022-09-23T07:02:10.923Z,9.89
2022-09-23T07:05:15.656Z,10.11
2022-09-23T07:08:18.709Z,10.04
2022-09-23T07:11:23.463Z,10.18
2022-09-23T07:14:25.817Z,10.35
2022-09-23T07:17:28.405Z,10.47
2022-09-23T07:20:32.999Z,10.66
2022-09-23T07:23:37.181Z,10.61
2022-09-23T07:26:44.921Z,10.84
2022-09-23T07:29:49.114Z,10.84
2022-09-23T07:32:52.174Z,11.06
2022-09-23T07:35:55.101Z,11.17
2022-09-23T07:39:02.716Z,11.18
2022-09-23T07:42:06.187Z,11.27
2022-09-23T07:45:09.211Z,11.41
2022-09-23T07:48:12.083Z,11.47
2022-09-23T07:51:23.553Z,11.51
2022-09-23T07:54:29.724Z,11.68
2022-09-23T07:57:35.262Z,11.90
2022-09-23T08:00:37.892Z,12.12
2022-09-23T08:03:40.484Z,12.26
2022-09-23T08:06:43.670Z,12.44
2022-09-23T08:09:46.366Z,12.48
2022-09-23T08:12:49.171Z,12.67
2022-09-23T08:15:55.547Z,12.81
2022-09-23T08:18:57.993Z,12.93
2022-09-23T08:22:01.549Z,13.05
2022-09-23T08:25:05.358Z,13.12
2022-09-23T08:28:09.686Z,13.15
2022-09-23T08:31:14.011Z,13.03
2022-09-23T08:34:17.477Z,13.20
2022-09-23T08:37:20.087Z,13.29
2022-09-23T08:40:22.714Z,13.37
2022-09-23T08:43:30.064Z,13.50
2022-09-23T08:46:36.375Z,13.62
2022-09-23T08:49:45.845Z,13.58
2022-09-23T08:52:58.733Z,13.57
2022-09-23T08:56:07.292Z,13.63
2022-09-23T08:59:14.775Z,13.86
2022-09-23T09:02:19.371Z,13.80
2022-09-23T09:05:26.932Z,13.98
2022-09-23T09:08:35.725Z,13.99
2022-09-23T09:11:46.644Z,14.14
2022-09-23T09:15:05.954Z,14.19
2022-09-23T09:18:21.376Z,14.05
2022-09-23T09:21:27.209Z,14.27
2022-09-23T09:24:34.701Z,14.28
2022-09-23T09:27:40.980Z,14.23
2022-09-23T09:30:49.041Z,14.47
2022-09-23T09:33:57.904Z,14.40
2022-09-23T09:37:07.221Z,14.49
2022-09-23T09:40:12.905Z,14.59
2022-09-23T09:43:23.567Z,14.70
2022-09-23T09:46:56.720Z,14.82
2022-09-23T09:50:07.008Z,14.61
2022-09-23T09:53:23.842Z,14.63
2022-09-23T09:56:33.586Z,14.79
2022-09-23T09:59:35.923Z,15.00
2022-09-23T10:02:38.674Z,15.05
2022-09-23T10:05:44.885Z,15.12
2022-09-23T10:09:07.355Z,15.28
2022-09-23T10:12:18.660Z,15.23
2022-09-23T10:15:44.474Z,15.46
2022-09-23T10:18:47.534Z,15.59
2022-09-23T10:22:39.675Z,15.85
2022-09-23T10:25:42.378Z,16.01
2022-09-23T10:28:50.547Z,16.10
2022-09-23T10:32:14.500Z,16.05
2022-09-23T10:35:22.530Z,16.42
2022-09-23T10:38:25.229Z,16.26
2022-09-23T10:41:50.655Z,16.60
2022-09-23T10:45:17.878Z,16.58
2022-09-23T10:48:36.574Z,16.96
2022-09-23T10:52:03.382Z,17.41
2022-09-23T10:55:11.622Z,17.92
2022-09-23T10:58:30.089Z,17.20
2022-09-23T11:02:02.469Z,16.75
2022-09-23T11:05:19.450Z,16.52
2022-09-23T11:08:33.747Z,16.31
2022-09-23T11:12:12.300Z,16.26
2022-09-23T11:15:31.167Z,16.16
2022-09-23T11:18:36.779Z,16.18
